Noardburgum, Netherlands
Current Conditions -  °F | °C
As of 4:46 PM on Friday 28 Nov 2014 (Local Time) from EHLW Reporting Station
Haze Haze  
Wind Chill: 31°   Ceiling: 10000
Heat Index: 39°   Visibility: 4mi
Dew Point: 34°   Wind: 15mph
Humidity: 81%   Direction: 110°ESE
Pressure: 29.88"   Gusts: NA
Location:  53.22°N, 6.01°E
Report Text: EHLW 281546Z AUTO 11013KT 7000 BR OVC100 04/01 Q1012 WHT
Loading
Personal Weather Stations






























Interactive Weather Map New forecast layout! Learn more

10-Day Weather Forecast

Advertisements
Track Severe Weather on mobile